sensor_id;sensor_type;location;lat;lon;timestamp;temperature;humidity
21823;DHT22;11074;48.596;9.238;2023-05-19T00:01:41;12.90;99.90
21823;DHT22;11074;48.596;9.238;2023-05-19T00:04:13;12.90;99.90
21823;DHT22;11074;48.596;9.238;2023-05-19T00:06:40;12.90;99.90
21823;DHT22;11074;48.596;9.238;2023-05-19T00:09:10;12.90;99.90
21823;DHT22;11074;48.596;9.238;2023-05-19T00:11:38;12.90;99.90
21823;DHT22;11074;48.596;9.238;2023-05-19T00:14:06;12.90;99.90
21823;DHT22;11074;48.596;9.238;2023-05-19T00:16:34;12.90;99.90
21823;DHT22;11074;48.596;9.238;2023-05-19T00:19:03;12.90;99.90
21823;DHT22;11074;48.596;9.238;2023-05-19T00:21:30;12.90;99.90
21823;DHT22;11074;48.596;9.238;2023-05-19T00:23:56;12.90;99.90
21823;DHT22;11074;48.596;9.238;2023-05-19T00:26:23;12.90;99.90
21823;DHT22;11074;48.596;9.238;2023-05-19T00:28:51;12.90;99.90
21823;DHT22;11074;48.596;9.238;2023-05-19T00:31:17;12.80;99.90
21823;DHT22;11074;48.596;9.238;2023-05-19T00:33:44;12.80;99.90
21823;DHT22;11074;48.596;9.238;2023-05-19T00:36:10;12.80;99.90
21823;DHT22;11074;48.596;9.238;2023-05-19T00:38:36;12.80;99.90
21823;DHT22;11074;48.596;9.238;2023-05-19T00:41:03;12.80;99.90
21823;DHT22;11074;48.596;9.238;2023-05-19T00:43:31;12.80;99.90
21823;DHT22;11074;48.596;9.238;2023-05-19T00:45:58;12.80;99.90
21823;DHT22;11074;48.596;9.238;2023-05-19T00:48:25;12.80;99.90
21823;DHT22;11074;48.596;9.238;2023-05-19T00:50:52;12.80;99.90
21823;DHT22;11074;48.596;9.238;2023-05-19T00:53:20;12.80;99.90
21823;DHT22;11074;48.596;9.238;2023-05-19T00:55:47;12.80;99.90
21823;DHT22;11074;48.596;9.238;2023-05-19T00:58:14;12.80;99.90
21823;DHT22;11074;48.596;9.238;2023-05-19T01:00:40;12.80;99.90
21823;DHT22;11074;48.596;9.238;2023-05-19T01:03:07;12.80;99.90
21823;DHT22;11074;48.596;9.238;2023-05-19T01:05:39;12.80;99.90
21823;DHT22;11074;48.596;9.238;2023-05-19T01:08:09;12.70;99.90
21823;DHT22;11074;48.596;9.238;2023-05-19T01:10:35;12.70;99.90
21823;DHT22;11074;48.596;9.238;2023-05-19T01:13:02;12.70;99.90
21823;DHT22;11074;48.596;9.238;2023-05-19T01:15:29;12.70;99.90
21823;DHT22;11074;48.596;9.238;2023-05-19T01:24:33;12.70;99.90
21823;DHT22;11074;48.596;9.238;2023-05-19T01:31:00;12.60;99.90
21823;DHT22;11074;48.596;9.238;2023-05-19T01:33:31;12.60;99.90
21823;DHT22;11074;48.596;9.238;2023-05-19T01:35:58;12.60;99.90
21823;DHT22;11074;48.596;9.238;2023-05-19T01:38:27;12.60;99.90
21823;DHT22;11074;48.596;9.238;2023-05-19T01:40:55;12.60;99.90
21823;DHT22;11074;48.596;9.238;2023-05-19T01:43:24;12.60;99.90
21823;DHT22;11074;48.596;9.238;2023-05-19T01:45:52;12.60;99.90
21823;DHT22;11074;48.596;9.238;2023-05-19T01:48:19;12.60;99.90
21823;DHT22;11074;48.596;9.238;2023-05-19T01:50:46;12.60;99.90
21823;DHT22;11074;48.596;9.238;2023-05-19T01:53:11;12.60;99.90
21823;DHT22;11074;48.596;9.238;2023-05-19T01:55:44;12.60;99.90
21823;DHT22;11074;48.596;9.238;2023-05-19T02:07:00;12.60;99.90
21823;DHT22;11074;48.596;9.238;2023-05-19T02:09:51;12.60;99.90
21823;DHT22;11074;48.596;9.238;2023-05-19T02:12:24;12.50;99.90
21823;DHT22;11074;48.596;9.238;2023-05-19T02:15:06;12.50;99.90
21823;DHT22;11074;48.596;9.238;2023-05-19T02:17:47;12.50;99.90
21823;DHT22;11074;48.596;9.238;2023-05-19T02:20:16;12.50;99.90
21823;DHT22;11074;48.596;9.238;2023-05-19T02:22:43;12.50;99.90
21823;DHT22;11074;48.596;9.238;2023-05-19T02:25:10;12.50;99.90
21823;DHT22;11074;48.596;9.238;2023-05-19T02:27:37;12.50;99.90
21823;DHT22;11074;48.596;9.238;2023-05-19T02:30:03;12.50;99.90
21823;DHT22;11074;48.596;9.238;2023-05-19T02:32:31;12.50;99.90
21823;DHT22;11074;48.596;9.238;2023-05-19T02:34:57;12.50;99.90
21823;DHT22;11074;48.596;9.238;2023-05-19T02:37:23;12.50;99.90
21823;DHT22;11074;48.596;9.238;2023-05-19T02:39:49;12.50;99.90
21823;DHT22;11074;48.596;9.238;2023-05-19T02:42:15;12.50;99.90
21823;DHT22;11074;48.596;9.238;2023-05-19T02:44:44;12.50;99.90
21823;DHT22;11074;48.596;9.238;2023-05-19T02:47:10;12.50;99.90
21823;DHT22;11074;48.596;9.238;2023-05-19T02:49:36;12.50;99.90
21823;DHT22;11074;48.596;9.238;2023-05-19T02:52:02;12.50;99.90
21823;DHT22;11074;48.596;9.238;2023-05-19T02:54:29;12.50;99.90
21823;DHT22;11074;48.596;9.238;2023-05-19T02:56:56;12.40;99.90
21823;DHT22;11074;48.596;9.238;2023-05-19T02:59:22;12.40;99.90
21823;DHT22;11074;48.596;9.238;2023-05-19T03:01:49;12.40;99.90
21823;DHT22;11074;48.596;9.238;2023-05-19T03:04:17;12.40;99.90
21823;DHT22;11074;48.596;9.238;2023-05-19T03:06:44;12.40;99.90
21823;DHT22;11074;48.596;9.238;2023-05-19T03:09:11;12.40;99.90
21823;DHT22;11074;48.596;9.238;2023-05-19T03:11:38;12.40;99.90
21823;DHT22;11074;48.596;9.238;2023-05-19T03:14:04;12.30;99.90
21823;DHT22;11074;48.596;9.238;2023-05-19T03:16:29;12.30;99.90
21823;DHT22;11074;48.596;9.238;2023-05-19T03:18:55;12.30;99.90
21823;DHT22;11074;48.596;9.238;2023-05-19T03:21:21;12.30;99.90
21823;DHT22;11074;48.596;9.238;2023-05-19T03:23:47;12.30;99.90
21823;DHT22;11074;48.596;9.238;2023-05-19T03:26:12;12.30;99.90
21823;DHT22;11074;48.596;9.238;2023-05-19T03:28:38;12.30;99.90
21823;DHT22;11074;48.596;9.238;2023-05-19T03:31:04;12.30;99.90
21823;DHT22;11074;48.596;9.238;2023-05-19T03:33:30;12.30;99.90
21823;DHT22;11074;48.596;9.238;2023-05-19T03:35:56;12.30;99.90
21823;DHT22;11074;48.596;9.238;2023-05-19T03:38:22;12.30;99.90
21823;DHT22;11074;48.596;9.238;2023-05-19T03:40:47;12.30;99.90
21823;DHT22;11074;48.596;9.238;2023-05-19T03:43:13;12.30;99.90
21823;DHT22;11074;48.596;9.238;2023-05-19T03:45:40;12.30;99.90
21823;DHT22;11074;48.596;9.238;2023-05-19T03:48:06;12.30;99.90
21823;DHT22;11074;48.596;9.238;2023-05-19T03:50:32;12.30;99.90
21823;DHT22;11074;48.596;9.238;2023-05-19T03:52:58;12.30;99.90
21823;DHT22;11074;48.596;9.238;2023-05-19T03:55:24;12.30;99.90
21823;DHT22;11074;48.596;9.238;2023-05-19T03:57:51;12.30;99.90
21823;DHT22;11074;48.596;9.238;2023-05-19T04:00:17;12.30;99.90
21823;DHT22;11074;48.596;9.238;2023-05-19T04:02:43;12.20;99.90
21823;DHT22;11074;48.596;9.238;2023-05-19T04:05:09;12.20;99.90
21823;DHT22;11074;48.596;9.238;2023-05-19T04:07:35;12.20;99.90
21823;DHT22;11074;48.596;9.238;2023-05-19T04:10:03;12.30;99.90
21823;DHT22;11074;48.596;9.238;2023-05-19T04:12:29;12.20;99.90
21823;DHT22;11074;48.596;9.238;2023-05-19T04:14:56;12.20;99.90
21823;DHT22;11074;48.596;9.238;2023-05-19T04:17:21;12.20;99.90
21823;DHT22;11074;48.596;9.238;2023-05-19T04:19:53;12.20;99.90
21823;DHT22;11074;48.596;9.238;2023-05-19T04:22:20;12.20;99.90
21823;DHT22;11074;48.596;9.238;2023-05-19T04:24:46;12.30;99.90
21823;DHT22;11074;48.596;9.238;2023-05-19T04:27:12;12.30;99.90
21823;DHT22;11074;48.596;9.238;2023-05-19T04:29:38;12.30;99.90
21823;DHT22;11074;48.596;9.238;2023-05-19T04:32:05;12.30;99.90
21823;DHT22;11074;48.596;9.238;2023-05-19T04:34:35;12.40;99.90
21823;DHT22;11074;48.596;9.238;2023-05-19T04:37:05;12.40;99.90
21823;DHT22;11074;48.596;9.238;2023-05-19T04:39:31;12.40;99.90
21823;DHT22;11074;48.596;9.238;2023-05-19T04:41:57;12.40;99.90
21823;DHT22;11074;48.596;9.238;2023-05-19T04:44:24;12.40;99.90
21823;DHT22;11074;48.596;9.238;2023-05-19T04:46:50;12.40;99.90
21823;DHT22;11074;48.596;9.238;2023-05-19T04:49:18;12.30;99.90
21823;DHT22;11074;48.596;9.238;2023-05-19T04:51:45;12.40;99.90
21823;DHT22;11074;48.596;9.238;2023-05-19T04:54:14;12.40;99.90
21823;DHT22;11074;48.596;9.238;2023-05-19T04:56:40;12.40;99.90
21823;DHT22;11074;48.596;9.238;2023-05-19T04:59:08;12.40;99.90
21823;DHT22;11074;48.596;9.238;2023-05-19T05:01:34;12.50;99.90
21823;DHT22;11074;48.596;9.238;2023-05-19T05:04:05;12.50;99.90
21823;DHT22;11074;48.596;9.238;2023-05-19T05:06:31;12.50;99.90
21823;DHT22;11074;48.596;9.238;2023-05-19T05:08:57;12.60;99.90
21823;DHT22;11074;48.596;9.238;2023-05-19T05:11:24;12.50;99.90
21823;DHT22;11074;48.596;9.238;2023-05-19T05:13:51;12.50;99.90
21823;DHT22;11074;48.596;9.238;2023-05-19T05:16:17;12.60;99.90
21823;DHT22;11074;48.596;9.238;2023-05-19T05:18:43;12.70;99.90
21823;DHT22;11074;48.596;9.238;2023-05-19T05:21:09;12.80;99.90
21823;DHT22;11074;48.596;9.238;2023-05-19T05:23:35;12.80;99.90
21823;DHT22;11074;48.596;9.238;2023-05-19T05:26:08;12.90;99.90
21823;DHT22;11074;48.596;9.238;2023-05-19T05:28:41;12.90;99.90
21823;DHT22;11074;48.596;9.238;2023-05-19T05:31:06;13.00;99.90
21823;DHT22;11074;48.596;9.238;2023-05-19T05:33:32;13.00;99.90
21823;DHT22;11074;48.596;9.238;2023-05-19T05:35:58;12.90;99.90
21823;DHT22;11074;48.596;9.238;2023-05-19T05:38:23;12.90;99.90
21823;DHT22;11074;48.596;9.238;2023-05-19T05:40:49;12.90;99.90
21823;DHT22;11074;48.596;9.238;2023-05-19T05:43:14;12.90;99.90
21823;DHT22;11074;48.596;9.238;2023-05-19T05:45:40;12.90;99.90
21823;DHT22;11074;48.596;9.238;2023-05-19T05:48:06;12.90;99.90
21823;DHT22;11074;48.596;9.238;2023-05-19T05:50:32;12.90;99.90
21823;DHT22;11074;48.596;9.238;2023-05-19T05:53:00;12.90;99.90
21823;DHT22;11074;48.596;9.238;2023-05-19T05:55:27;12.90;99.90
21823;DHT22;11074;48.596;9.238;2023-05-19T05:57:53;13.00;99.90
21823;DHT22;11074;48.596;9.238;2023-05-19T06:00:21;13.00;99.90
21823;DHT22;11074;48.596;9.238;2023-05-19T06:02:48;13.10;99.90
21823;DHT22;11074;48.596;9.238;2023-05-19T06:05:16;13.20;99.90
21823;DHT22;11074;48.596;9.238;2023-05-19T06:07:42;13.20;99.90
21823;DHT22;11074;48.596;9.238;2023-05-19T06:10:08;13.30;99.90
21823;DHT22;11074;48.596;9.238;2023-05-19T06:12:34;13.40;99.90
21823;DHT22;11074;48.596;9.238;2023-05-19T06:15:04;13.40;99.90
21823;DHT22;11074;48.596;9.238;2023-05-19T06:17:30;13.40;99.90
21823;DHT22;11074;48.596;9.238;2023-05-19T06:19:58;13.40;99.90
21823;DHT22;11074;48.596;9.238;2023-05-19T06:22:24;13.40;99.90
21823;DHT22;11074;48.596;9.238;2023-05-19T06:24:50;13.40;99.90
21823;DHT22;11074;48.596;9.238;2023-05-19T06:27:15;13.40;99.90
21823;DHT22;11074;48.596;9.238;2023-05-19T06:29:41;13.50;99.90
21823;DHT22;11074;48.596;9.238;2023-05-19T06:32:07;13.50;99.90
21823;DHT22;11074;48.596;9.238;2023-05-19T06:34:32;13.60;99.90
21823;DHT22;11074;48.596;9.238;2023-05-19T06:36:58;13.70;99.90
21823;DHT22;11074;48.596;9.238;2023-05-19T06:39:24;13.70;99.90
21823;DHT22;11074;48.596;9.238;2023-05-19T06:41:50;13.70;99.90
21823;DHT22;11074;48.596;9.238;2023-05-19T06:44:16;13.70;99.90
21823;DHT22;11074;48.596;9.238;2023-05-19T06:46:41;13.80;99.90
21823;DHT22;11074;48.596;9.238;2023-05-19T06:49:09;13.80;99.90
21823;DHT22;11074;48.596;9.238;2023-05-19T06:51:35;13.90;99.90
21823;DHT22;11074;48.596;9.238;2023-05-19T06:54:00;14.00;99.90
21823;DHT22;11074;48.596;9.238;2023-05-19T06:56:27;14.10;99.90
21823;DHT22;11074;48.596;9.238;2023-05-19T06:58:52;14.10;99.90
21823;DHT22;11074;48.596;9.238;2023-05-19T07:01:18;14.20;99.90
21823;DHT22;11074;48.596;9.238;2023-05-19T07:03:44;14.20;99.90
21823;DHT22;11074;48.596;9.238;2023-05-19T07:06:09;14.20;99.90
21823;DHT22;11074;48.596;9.238;2023-05-19T07:08:35;14.20;99.90
21823;DHT22;11074;48.596;9.238;2023-05-19T07:11:01;14.20;99.90
21823;DHT22;11074;48.596;9.238;2023-05-19T07:13:27;14.30;99.90
21823;DHT22;11074;48.596;9.238;2023-05-19T07:15:53;14.30;99.90
21823;DHT22;11074;48.596;9.238;2023-05-19T07:18:21;14.30;99.90
21823;DHT22;11074;48.596;9.238;2023-05-19T07:20:47;14.30;99.90
21823;DHT22;11074;48.596;9.238;2023-05-19T07:23:13;14.30;99.90
21823;DHT22;11074;48.596;9.238;2023-05-19T07:25:38;14.20;99.90
21823;DHT22;11074;48.596;9.238;2023-05-19T07:28:04;14.10;99.90
21823;DHT22;11074;48.596;9.238;2023-05-19T07:30:30;14.20;99.90
21823;DHT22;11074;48.596;9.238;2023-05-19T07:32:56;14.20;99.90
21823;DHT22;11074;48.596;9.238;2023-05-19T07:35:22;14.30;99.90
21823;DHT22;11074;48.596;9.238;2023-05-19T07:37:48;14.30;99.90
21823;DHT22;11074;48.596;9.238;2023-05-19T07:40:16;14.30;99.90
21823;DHT22;11074;48.596;9.238;2023-05-19T07:42:41;14.30;99.90
21823;DHT22;11074;48.596;9.238;2023-05-19T07:45:09;14.30;99.90
21823;DHT22;11074;48.596;9.238;2023-05-19T07:47:36;14.40;99.90
21823;DHT22;11074;48.596;9.238;2023-05-19T07:50:02;14.40;99.90
21823;DHT22;11074;48.596;9.238;2023-05-19T07:52:28;14.50;99.90
21823;DHT22;11074;48.596;9.238;2023-05-19T07:54:54;14.60;99.90
21823;DHT22;11074;48.596;9.238;2023-05-19T07:57:20;14.70;99.90
21823;DHT22;11074;48.596;9.238;2023-05-19T07:59:46;14.70;99.90
21823;DHT22;11074;48.596;9.238;2023-05-19T08:02:12;14.80;99.90
21823;DHT22;11074;48.596;9.238;2023-05-19T08:04:37;14.80;99.90
21823;DHT22;11074;48.596;9.238;2023-05-19T08:07:03;14.90;99.90
21823;DHT22;11074;48.596;9.238;2023-05-19T08:09:29;14.90;99.90
21823;DHT22;11074;48.596;9.238;2023-05-19T08:11:54;14.90;99.90
21823;DHT22;11074;48.596;9.238;2023-05-19T08:14:20;14.90;99.90
21823;DHT22;11074;48.596;9.238;2023-05-19T08:16:47;15.00;99.90
21823;DHT22;11074;48.596;9.238;2023-05-19T08:19:14;15.00;99.90
21823;DHT22;11074;48.596;9.238;2023-05-19T08:21:39;15.10;99.90
21823;DHT22;11074;48.596;9.238;2023-05-19T08:24:06;15.10;99.90
21823;DHT22;11074;48.596;9.238;2023-05-19T08:26:33;15.00;99.90
21823;DHT22;11074;48.596;9.238;2023-05-19T08:28:59;15.00;99.90
21823;DHT22;11074;48.596;9.238;2023-05-19T08:31:25;14.90;99.90
21823;DHT22;11074;48.596;9.238;2023-05-19T08:33:50;14.80;99.90
21823;DHT22;11074;48.596;9.238;2023-05-19T08:36:17;14.80;99.90
21823;DHT22;11074;48.596;9.238;2023-05-19T08:38:43;14.60;99.90
21823;DHT22;11074;48.596;9.238;2023-05-19T08:41:09;14.60;99.90
21823;DHT22;11074;48.596;9.238;2023-05-19T08:43:35;14.70;99.90
21823;DHT22;11074;48.596;9.238;2023-05-19T08:46:02;14.90;99.90
21823;DHT22;11074;48.596;9.238;2023-05-19T08:48:29;14.90;99.90
21823;DHT22;11074;48.596;9.238;2023-05-19T08:54:13;15.00;99.90
21823;DHT22;11074;48.596;9.238;2023-05-19T08:56:42;15.00;99.90
21823;DHT22;11074;48.596;9.238;2023-05-19T08:59:14;15.00;99.90
21823;DHT22;11074;48.596;9.238;2023-05-19T09:01:44;15.10;99.90
21823;DHT22;11074;48.596;9.238;2023-05-19T09:04:11;15.20;99.90
21823;DHT22;11074;48.596;9.238;2023-05-19T09:06:37;15.30;99.90
21823;DHT22;11074;48.596;9.238;2023-05-19T09:09:06;15.40;99.90
21823;DHT22;11074;48.596;9.238;2023-05-19T09:11:33;15.40;99.90
21823;DHT22;11074;48.596;9.238;2023-05-19T09:14:00;15.40;99.90
21823;DHT22;11074;48.596;9.238;2023-05-19T09:16:25;15.40;99.90
21823;DHT22;11074;48.596;9.238;2023-05-19T09:18:55;15.30;99.90
21823;DHT22;11074;48.596;9.238;2023-05-19T09:21:29;15.20;99.90
21823;DHT22;11074;48.596;9.238;2023-05-19T09:23:56;15.10;99.90
21823;DHT22;11074;48.596;9.238;2023-05-19T09:26:23;15.20;99.90
21823;DHT22;11074;48.596;9.238;2023-05-19T09:28:49;15.10;99.90
21823;DHT22;11074;48.596;9.238;2023-05-19T09:31:15;15.20;99.90
21823;DHT22;11074;48.596;9.238;2023-05-19T09:33:42;15.20;99.90
21823;DHT22;11074;48.596;9.238;2023-05-19T09:36:08;15.10;99.90
21823;DHT22;11074;48.596;9.238;2023-05-19T09:38:36;15.10;99.90
21823;DHT22;11074;48.596;9.238;2023-05-19T09:41:04;15.10;99.90
21823;DHT22;11074;48.596;9.238;2023-05-19T09:43:32;15.10;99.90
21823;DHT22;11074;48.596;9.238;2023-05-19T09:46:05;15.10;99.90
21823;DHT22;11074;48.596;9.238;2023-05-19T09:48:33;15.00;99.90
21823;DHT22;11074;48.596;9.238;2023-05-19T09:51:00;15.00;99.90
21823;DHT22;11074;48.596;9.238;2023-05-19T09:53:28;15.00;99.90
21823;DHT22;11074;48.596;9.238;2023-05-19T09:55:56;15.00;99.90
21823;DHT22;11074;48.596;9.238;2023-05-19T09:58:22;15.00;99.90
21823;DHT22;11074;48.596;9.238;2023-05-19T10:00:49;14.90;99.90
21823;DHT22;11074;48.596;9.238;2023-05-19T10:03:16;14.90;99.90
21823;DHT22;11074;48.596;9.238;2023-05-19T10:05:43;14.80;99.90
21823;DHT22;11074;48.596;9.238;2023-05-19T10:08:10;14.80;99.90
21823;DHT22;11074;48.596;9.238;2023-05-19T10:10:36;14.90;99.90
21823;DHT22;11074;48.596;9.238;2023-05-19T10:13:04;14.90;99.90
21823;DHT22;11074;48.596;9.238;2023-05-19T10:15:30;14.80;99.90
21823;DHT22;11074;48.596;9.238;2023-05-19T10:17:57;14.90;99.90
21823;DHT22;11074;48.596;9.238;2023-05-19T10:20:25;15.00;99.90
21823;DHT22;11074;48.596;9.238;2023-05-19T10:22:51;15.10;99.90
21823;DHT22;11074;48.596;9.238;2023-05-19T10:25:17;15.10;99.90
21823;DHT22;11074;48.596;9.238;2023-05-19T10:27:56;15.20;99.90
21823;DHT22;11074;48.596;9.238;2023-05-19T10:30:40;15.30;99.90
21823;DHT22;11074;48.596;9.238;2023-05-19T10:33:15;15.30;99.90
21823;DHT22;11074;48.596;9.238;2023-05-19T10:38:57;15.20;99.90
21823;DHT22;11074;48.596;9.238;2023-05-19T10:47:25;15.30;99.90
21823;DHT22;11074;48.596;9.238;2023-05-19T10:49:52;15.40;99.90
21823;DHT22;11074;48.596;9.238;2023-05-19T10:52:22;15.40;99.90
21823;DHT22;11074;48.596;9.238;2023-05-19T10:54:51;15.60;99.90
21823;DHT22;11074;48.596;9.238;2023-05-19T10:57:27;15.70;99.90
21823;DHT22;11074;48.596;9.238;2023-05-19T10:59:56;15.70;99.90
21823;DHT22;11074;48.596;9.238;2023-05-19T11:02:41;15.80;99.90
21823;DHT22;11074;48.596;9.238;2023-05-19T11:05:10;15.90;99.90
21823;DHT22;11074;48.596;9.238;2023-05-19T11:07:42;15.80;99.90
21823;DHT22;11074;48.596;9.238;2023-05-19T11:10:09;15.70;99.90
21823;DHT22;11074;48.596;9.238;2023-05-19T11:12:43;15.70;99.90
21823;DHT22;11074;48.596;9.238;2023-05-19T11:15:14;15.60;99.90
21823;DHT22;11074;48.596;9.238;2023-05-19T11:17:41;15.60;99.90
21823;DHT22;11074;48.596;9.238;2023-05-19T11:20:29;15.60;99.90
21823;DHT22;11074;48.596;9.238;2023-05-19T11:23:06;15.60;99.90
21823;DHT22;11074;48.596;9.238;2023-05-19T11:25:47;15.60;99.90
21823;DHT22;11074;48.596;9.238;2023-05-19T11:28:16;15.60;99.90
21823;DHT22;11074;48.596;9.238;2023-05-19T11:30:44;15.70;99.90
21823;DHT22;11074;48.596;9.238;2023-05-19T11:33:13;15.70;99.90
21823;DHT22;11074;48.596;9.238;2023-05-19T11:35:44;15.70;99.90
21823;DHT22;11074;48.596;9.238;2023-05-19T11:38:12;15.80;99.90
21823;DHT22;11074;48.596;9.238;2023-05-19T11:40:40;15.90;99.90
21823;DHT22;11074;48.596;9.238;2023-05-19T11:43:06;15.80;99.90
21823;DHT22;11074;48.596;9.238;2023-05-19T11:45:33;15.90;99.90
21823;DHT22;11074;48.596;9.238;2023-05-19T11:47:59;15.90;99.90
21823;DHT22;11074;48.596;9.238;2023-05-19T11:50:27;16.00;99.90
21823;DHT22;11074;48.596;9.238;2023-05-19T11:52:55;16.00;99.90
21823;DHT22;11074;48.596;9.238;2023-05-19T11:55:22;15.90;99.90
21823;DHT22;11074;48.596;9.238;2023-05-19T12:00:21;15.70;99.90
21823;DHT22;11074;48.596;9.238;2023-05-19T12:02:47;15.50;99.90
21823;DHT22;11074;48.596;9.238;2023-05-19T12:05:24;15.40;99.90
21823;DHT22;11074;48.596;9.238;2023-05-19T12:07:51;15.50;99.90
21823;DHT22;11074;48.596;9.238;2023-05-19T12:10:27;15.50;99.90
21823;DHT22;11074;48.596;9.238;2023-05-19T12:12:55;15.60;99.90
21823;DHT22;11074;48.596;9.238;2023-05-19T12:15:23;15.70;99.90
21823;DHT22;11074;48.596;9.238;2023-05-19T12:17:51;15.80;99.90
21823;DHT22;11074;48.596;9.238;2023-05-19T12:20:22;15.90;99.90
21823;DHT22;11074;48.596;9.238;2023-05-19T12:22:49;16.00;99.90
21823;DHT22;11074;48.596;9.238;2023-05-19T12:25:15;16.10;99.90
21823;DHT22;11074;48.596;9.238;2023-05-19T12:27:42;16.20;99.90
21823;DHT22;11074;48.596;9.238;2023-05-19T12:30:09;16.30;99.90
21823;DHT22;11074;48.596;9.238;2023-05-19T12:32:37;16.30;99.90
21823;DHT22;11074;48.596;9.238;2023-05-19T12:35:04;16.30;99.90
21823;DHT22;11074;48.596;9.238;2023-05-19T12:37:31;16.20;99.90
21823;DHT22;11074;48.596;9.238;2023-05-19T12:39:59;16.10;99.90
21823;DHT22;11074;48.596;9.238;2023-05-19T12:42:26;15.90;99.90
21823;DHT22;11074;48.596;9.238;2023-05-19T12:44:56;15.80;99.90
21823;DHT22;11074;48.596;9.238;2023-05-19T12:47:29;15.80;99.90
21823;DHT22;11074;48.596;9.238;2023-05-19T12:52:30;15.80;99.90
21823;DHT22;11074;48.596;9.238;2023-05-19T12:55:04;15.80;99.90
21823;DHT22;11074;48.596;9.238;2023-05-19T12:57:35;15.90;99.90
21823;DHT22;11074;48.596;9.238;2023-05-19T13:02:53;15.90;99.90
21823;DHT22;11074;48.596;9.238;2023-05-19T13:05:20;16.00;99.90
21823;DHT22;11074;48.596;9.238;2023-05-19T13:07:56;16.10;99.90
21823;DHT22;11074;48.596;9.238;2023-05-19T13:10:23;16.20;99.90
21823;DHT22;11074;48.596;9.238;2023-05-19T13:12:55;16.20;99.90
21823;DHT22;11074;48.596;9.238;2023-05-19T13:15:31;16.20;99.90
21823;DHT22;11074;48.596;9.238;2023-05-19T13:18:00;16.30;99.90
21823;DHT22;11074;48.596;9.238;2023-05-19T13:20:28;16.30;99.90
21823;DHT22;11074;48.596;9.238;2023-05-19T13:22:53;16.20;99.90
21823;DHT22;11074;48.596;9.238;2023-05-19T13:25:20;16.10;99.90
21823;DHT22;11074;48.596;9.238;2023-05-19T13:27:47;16.10;99.90
21823;DHT22;11074;48.596;9.238;2023-05-19T13:30:13;16.10;99.90
21823;DHT22;11074;48.596;9.238;2023-05-19T13:32:43;16.10;99.90
21823;DHT22;11074;48.596;9.238;2023-05-19T13:35:10;16.20;99.90
21823;DHT22;11074;48.596;9.238;2023-05-19T13:37:36;16.20;99.90
21823;DHT22;11074;48.596;9.238;2023-05-19T13:40:04;16.20;99.90
21823;DHT22;11074;48.596;9.238;2023-05-19T13:42:33;16.20;99.90
21823;DHT22;11074;48.596;9.238;2023-05-19T13:45:00;16.20;99.90
21823;DHT22;11074;48.596;9.238;2023-05-19T13:47:26;16.10;99.90
21823;DHT22;11074;48.596;9.238;2023-05-19T13:49:52;16.20;99.90
21823;DHT22;11074;48.596;9.238;2023-05-19T13:52:21;16.20;99.90
21823;DHT22;11074;48.596;9.238;2023-05-19T13:54:47;16.30;99.90
21823;DHT22;11074;48.596;9.238;2023-05-19T13:57:14;16.30;99.90
21823;DHT22;11074;48.596;9.238;2023-05-19T13:59:40;16.30;99.90
21823;DHT22;11074;48.596;9.238;2023-05-19T14:02:07;16.30;99.90
21823;DHT22;11074;48.596;9.238;2023-05-19T14:04:36;16.30;99.90
21823;DHT22;11074;48.596;9.238;2023-05-19T14:07:05;16.30;99.90
21823;DHT22;11074;48.596;9.238;2023-05-19T14:09:34;16.40;99.90
21823;DHT22;11074;48.596;9.238;2023-05-19T14:12:00;16.50;99.90
21823;DHT22;11074;48.596;9.238;2023-05-19T14:14:26;16.50;99.90
21823;DHT22;11074;48.596;9.238;2023-05-19T14:16:52;16.60;99.90
21823;DHT22;11074;48.596;9.238;2023-05-19T14:19:18;16.60;99.90
21823;DHT22;11074;48.596;9.238;2023-05-19T14:21:44;16.50;99.90
21823;DHT22;11074;48.596;9.238;2023-05-19T14:24:10;16.50;99.90
21823;DHT22;11074;48.596;9.238;2023-05-19T14:26:35;16.30;99.90
21823;DHT22;11074;48.596;9.238;2023-05-19T14:29:01;16.30;99.90
21823;DHT22;11074;48.596;9.238;2023-05-19T14:31:27;16.30;99.90
21823;DHT22;11074;48.596;9.238;2023-05-19T14:33:53;16.20;99.90
21823;DHT22;11074;48.596;9.238;2023-05-19T14:36:19;16.20;99.90
21823;DHT22;11074;48.596;9.238;2023-05-19T14:38:45;16.20;99.90
21823;DHT22;11074;48.596;9.238;2023-05-19T14:41:10;16.20;99.90
21823;DHT22;11074;48.596;9.238;2023-05-19T14:43:36;16.20;99.90
21823;DHT22;11074;48.596;9.238;2023-05-19T14:46:02;16.20;99.90
21823;DHT22;11074;48.596;9.238;2023-05-19T14:48:28;16.10;99.90
21823;DHT22;11074;48.596;9.238;2023-05-19T14:50:53;16.10;99.90
21823;DHT22;11074;48.596;9.238;2023-05-19T14:53:19;16.10;99.90
21823;DHT22;11074;48.596;9.238;2023-05-19T14:55:48;16.00;99.90
21823;DHT22;11074;48.596;9.238;2023-05-19T14:58:14;16.00;99.90
21823;DHT22;11074;48.596;9.238;2023-05-19T15:00:41;16.10;99.90
21823;DHT22;11074;48.596;9.238;2023-05-19T15:03:07;16.10;99.90
21823;DHT22;11074;48.596;9.238;2023-05-19T15:05:33;16.10;99.90
21823;DHT22;11074;48.596;9.238;2023-05-19T15:08:00;16.10;99.90
21823;DHT22;11074;48.596;9.238;2023-05-19T15:10:26;16.20;99.90
21823;DHT22;11074;48.596;9.238;2023-05-19T15:12:52;16.20;99.90
21823;DHT22;11074;48.596;9.238;2023-05-19T15:15:18;16.20;99.90
21823;DHT22;11074;48.596;9.238;2023-05-19T15:17:43;16.20;99.90
21823;DHT22;11074;48.596;9.238;2023-05-19T15:20:11;16.10;99.90
21823;DHT22;11074;48.596;9.238;2023-05-19T15:22:37;16.10;99.90
21823;DHT22;11074;48.596;9.238;2023-05-19T15:25:02;16.20;99.90
21823;DHT22;11074;48.596;9.238;2023-05-19T15:27:28;16.20;99.90
21823;DHT22;11074;48.596;9.238;2023-05-19T15:29:54;16.30;99.90
21823;DHT22;11074;48.596;9.238;2023-05-19T15:32:19;16.30;99.90
21823;DHT22;11074;48.596;9.238;2023-05-19T15:34:45;16.30;99.90
21823;DHT22;11074;48.596;9.238;2023-05-19T15:37:11;16.40;99.90
21823;DHT22;11074;48.596;9.238;2023-05-19T15:39:36;16.50;99.90
21823;DHT22;11074;48.596;9.238;2023-05-19T15:42:02;16.60;99.90
21823;DHT22;11074;48.596;9.238;2023-05-19T15:44:28;16.60;99.90
21823;DHT22;11074;48.596;9.238;2023-05-19T15:46:54;16.50;99.90
21823;DHT22;11074;48.596;9.238;2023-05-19T15:49:19;16.50;99.90
21823;DHT22;11074;48.596;9.238;2023-05-19T15:51:45;16.50;99.90
21823;DHT22;11074;48.596;9.238;2023-05-19T15:54:11;16.60;99.90
21823;DHT22;11074;48.596;9.238;2023-05-19T15:56:37;16.70;99.90
21823;DHT22;11074;48.596;9.238;2023-05-19T15:59:02;16.70;99.90
21823;DHT22;11074;48.596;9.238;2023-05-19T16:01:28;16.80;99.90
21823;DHT22;11074;48.596;9.238;2023-05-19T16:03:54;16.70;99.90
21823;DHT22;11074;48.596;9.238;2023-05-19T16:06:20;16.70;99.90
21823;DHT22;11074;48.596;9.238;2023-05-19T16:08:46;16.60;99.90
21823;DHT22;11074;48.596;9.238;2023-05-19T16:11:11;16.60;99.90